Aktualne dane pomiarowe

Uwaga, wersja testowa! Automatyczne pobieranie danych za pomocą narzędzi lub skryptów to umożliwiających jest zabronione.

Dane meteo z obszaru Polski uzyskane na podstawie depesz SYNOP pobieranych co godzinę z NWS. Najedź myszką na symbol przedstawiony w tabeli, aby uzyskać informacje co do jego znaczenia. Prosimy pamiętać, że to testowa wersja strony, która jeszcze nie jest ukończona. Stworzono również jest krótki FAQ dotyczący korzystania z tej podstrony Anomalie temperatury w chwili obecnej odniesione są do okresu referencyjnego 1951-2016. Okres ten będzie później zmieniony na 1981-2010. Kliknij ikonę aby pobrać plik CSV. Kliknij ikonę aby wygenerować mapę synoptyczną dla danego terminu.

Wybierz Datę:    

        

Włodawa (12497)

Dane terminowe dla wybranej stacji. Kliknij datę, aby otrzymać dane z tego terminu dla wszystkich stacji.

TemperaturaZachmurzenieWiatrCiśnienieOpadyPogoda
 Data t td wb tx tn tg rh  Nt Nl Cl Cm Ch ws wd g1 g2 wx mslp ppp ch 24h 12h t ww ww w1 w2  
2019-06-13 23:00:00 21.3 16.5 18.0--- 7420.0wx-wx3wx--31016.3 995.5 0.8---------
2019-06-13 22:00:00 22.0 16.7 18.4--- 7220.0wx-wx2wx--21016.2 995.5 0.5---------
2019-06-13 21:00:00 23.0 16.5 18.6--- 6720.0wx-wx2wx--21015.9 995.2 0.4---------
2019-06-13 20:00:00 24.5 16.5 19.2--- 6120.0wxwxwxwx3wx--31015.2 994.7 0.5---------
2019-06-13 19:00:00 26.6 16.2 19.8--- 5320.0wxwxwxwx3wx---1015.4 995.0 1.4---------
2019-06-13 18:00:00 27.7 16.6 20.5 31.8 25.2- 5120.0wxwxwxwx3wx-1131015.1 994.8 0.9- 0.012------
2019-06-13 17:00:00 29.1 16.3 20.8--- 4620.0wxwxwx4wx---1014.4 994.2 -0.1---------
2019-06-13 16:00:00 30.1 15.4 20.7--- 4120.0wxwxwx5wx--51013.7 993.6 -1.1---------
2019-06-13 15:00:00 30.4 15.7 21.0--- 4120.0wxwxwx5wx101151014.0 993.9 -1.2---------
2019-06-13 14:00:00 31.2 16.4 21.6--- 4120.0wxwxwx6wx--61014.4 994.3 -1.0---------
2019-06-13 13:00:00 31.5 15.0 21.0--- 3720.0wxwxwx6wx-1161014.8 994.7 -0.8---------
2019-06-13 12:00:00 31.3 13.6 20.3--- 3420.0wxwxwxwx5wx--51015.2 995.1 -0.4- 0.06------
2019-06-13 11:00:00 31.4 16.6 21.8--- 4120.0wxwxwxwx5wx--51015.4 995.3 0.1---------
2019-06-13 10:00:00 30.6 15.8 21.1--- 4120.0wxwxwx6wx--61015.6 995.5 0.3---------
2019-06-13 09:00:00 29.8 16.6 21.2--- 4520.0wxwxwxwx5wx--51015.7 995.5 0.2---------
2019-06-13 08:00:00 28.7 17.9 21.5--- 5220.0wx-wx4wx--41015.5 995.2 0.0---------
2019-06-13 07:00:00 27.5 17.9 21.1--- 5620.0wx-wx3wx--31015.6 995.2 0.4---------
2019-06-13 06:00:00 25.2 18.4 20.6 27.3 18.3 16 6620.0wx-3wx--31015.8 995.3 0.9- 0.012----- 14.9
2019-06-13 05:00:00 22.2 18.6 19.7--- 8020.0wx-2wx--21015.9 995.2 0.7---------
2019-06-13 04:00:00 20.1 17.3 18.1--- 8420.0wx-3wx--31015.7 994.8 0.3---------
2019-06-13 03:00:00 18.8 16.9 17.4--- 8915.0wx-2wx--21015.3 994.4 -0.2---------
2019-06-13 02:00:00 19.1 16.9 17.5--- 8720.0wx-wx3wx--31015.4 994.5 0.0---------
2019-06-13 01:00:00 19.5 16.7 17.5--- 8420.0wx-3wx--31015.4 994.5 0.1---------
2019-06-13 00:00:00 19.8 16.8 17.7--- 8320.0wx-3wx--31015.5 994.6 0.3- 0.06------
2019-06-12 23:00:00 20.0 16.4 17.5--- 8020.0wx-2wx--21015.4 994.5 0.3---------
2019-06-12 22:00:00 21.6 16.8 18.3--- 7420.0wx-2wx--21015.1 994.4 0.5---------
2019-06-12 21:00:00 22.4 16.7 18.5--- 7020.0wx-2wx---1015.0 994.3 0.9---------
2019-06-12 20:00:00 24.4 16.4 19.1--- 6120.0wx-wx3wx--31014.7 994.2 0.7---------
2019-06-12 19:00:00 25.8 17.2 20.1--- 5920.0wxwxwxwx3wx--31014.3 993.9 0.5---------
2019-06-12 18:00:00 27.3 17.2 20.6 31.4 24.6- 5420.0wxwxwxwx2wx---1013.7 993.4 -0.1---------
2019-06-12 17:00:00 28.9 16.1 20.7--- 4620.0wxwxwxwx3wx--31013.7 993.5 -0.3---------
2019-06-12 16:00:00 30.0 15.3 20.6--- 4120.0wxwxwxwx3wx--31013.5 993.4 -0.6---------
2019-06-12 15:00:00 30.4 15.3 20.8--- 4020.0wxwxwxwx4wx--41013.6 993.5 -0.9---------
2019-06-12 14:00:00 30.6 16.6 21.5--- 4320.0wxwxwxwx4wx--41013.9 993.8 -0.7---------
2019-06-12 13:00:00 30.9 14.9 20.8--- 3820.0wxwxwxwx4wx--41014.1 994.0 -0.8---------
2019-06-12 12:00:00 30.7 16.3 21.4--- 4220.0wxwxwx4wx-1241014.5 994.4 -0.7- 0.06------
2019-06-12 11:00:00 31.0 16.2 21.5--- 4120.0wxwxwx5wx-1251014.6 994.5 -0.9---------
2019-06-12 10:00:00 29.8 14.7 20.3--- 4020.0wxwxwx7wx121271015.0 994.8 -0.6---------
2019-06-12 09:00:00 29.2 16.0 20.7--- 4520.0wxwxwxwx5wx--51015.3 995.1 -0.3---------
2019-06-12 08:00:00 28.5 16.4 20.7--- 4820.0wx-wx5wx--51015.7 995.4 0.0---------
2019-06-12 07:00:00 26.9 18.7 21.3--- 6120.0wx-2wx--21015.8 995.4 0.1---------
2019-06-12 06:00:00 24.6 18.8 20.6 27.0 17.7 15 7020.0wx-2wx--21016.0 995.4 0.2- 0.012----- 15.0
2019-06-12 05:00:00 22.4 17.7 19.1--- 7520.0wx-1wx--11016.1 995.4 0.2---------
2019-06-12 04:00:00 19.8 16.4 17.4--- 8120.0wx-1wx--11016.2 995.3 -0.1---------
2019-06-12 03:00:00 18.2 15.4 16.2--- 8420.0wx-2wx--21016.2 995.2 -0.4---------
2019-06-12 02:00:00 18.5 15.4 16.4--- 8220.0wx-3wx--31016.2 995.2 -0.2---------
2019-06-12 01:00:00 18.7 15.6 16.5--- 8220.0wx-2wx--21016.4 995.4 -0.2---------
2019-06-12 00:00:00 18.6 15.1 16.2--- 8020.0wx-2wx--21016.6 995.6 0.1- 0.06------
1.6 ms

 

Print Friendly, PDF & Email